createdAt,value
2018-03-26T00:00:34.104Z,88.85
2018-03-26T00:01:36.680Z,86.00
2018-03-26T00:02:39.988Z,88.53
2018-03-26T00:03:42.505Z,86.85
2018-03-26T00:04:45.019Z,97.28
2018-03-26T00:05:47.523Z,84.93
2018-03-26T00:06:50.799Z,88.50
2018-03-26T00:07:54.086Z,97.32
2018-03-26T00:08:56.609Z,99.80
2018-03-26T00:09:59.098Z,90.62
2018-03-26T00:11:01.617Z,95.82
2018-03-26T00:12:04.904Z,97.15
2018-03-26T00:13:08.175Z,91.22
2018-03-26T00:14:10.782Z,92.20
2018-03-26T00:15:13.288Z,93.47
2018-03-26T00:16:15.801Z,97.43
2018-03-26T00:17:19.060Z,91.10
2018-03-26T00:18:21.580Z,88.62
2018-03-26T00:19:24.869Z,106.53
2018-03-26T00:20:28.099Z,99.13
2018-03-26T00:21:31.706Z,94.72
2018-03-26T00:22:34.396Z,89.18
2018-03-26T00:23:37.140Z,103.32
2018-03-26T00:24:39.667Z,91.28
2018-03-26T00:25:42.965Z,108.37
2018-03-26T00:26:45.488Z,102.82
2018-03-26T00:27:48.021Z,104.50
2018-03-26T00:28:50.540Z,103.53
2018-03-26T00:29:53.047Z,92.05
2018-03-26T00:30:55.572Z,100.30
2018-03-26T00:31:58.081Z,110.75
2018-03-26T00:33:01.361Z,110.40
2018-03-26T00:34:04.638Z,96.97
2018-03-26T00:35:07.897Z,99.05
2018-03-26T00:36:11.111Z,90.18
2018-03-26T00:37:14.370Z,96.75
2018-03-26T00:38:16.859Z,98.18
2018-03-26T00:39:19.387Z,102.55
2018-03-26T00:40:21.945Z,103.93
2018-03-26T00:41:24.449Z,97.47
2018-03-26T00:42:26.954Z,110.55
2018-03-26T00:43:29.443Z,95.22
2018-03-26T00:44:32.718Z,107.40
2018-03-26T00:45:35.974Z,103.43
2018-03-26T00:46:38.492Z,99.80
2018-03-26T00:47:41.771Z,94.07
2018-03-26T00:48:45.075Z,95.75
2018-03-26T00:49:47.588Z,101.68
2018-03-26T00:50:50.106Z,102.82
2018-03-26T00:51:53.400Z,102.90
2018-03-26T00:52:55.950Z,104.32
2018-03-26T00:53:59.211Z,103.47
2018-03-26T00:55:01.761Z,100.18
2018-03-26T00:56:04.263Z,100.38
2018-03-26T00:57:06.751Z,96.45
2018-03-26T00:58:10.030Z,99.37
2018-03-26T00:59:12.535Z,102.28
2018-03-26T01:00:15.111Z,97.70
2018-03-26T01:01:17.683Z,108.65
2018-03-26T01:02:20.178Z,103.38
2018-03-26T01:03:22.696Z,99.95
2018-03-26T01:04:25.965Z,94.07
2018-03-26T01:05:28.467Z,100.72
2018-03-26T01:06:31.732Z,95.87
2018-03-26T01:07:34.234Z,86.25
2018-03-26T01:08:36.737Z,92.10
2018-03-26T01:09:39.237Z,96.45
2018-03-26T01:10:41.756Z,97.12
2018-03-26T01:11:44.271Z,89.72
2018-03-26T01:12:48.279Z,98.57
2018-03-26T01:13:50.775Z,97.05
2018-03-26T01:14:54.039Z,94.35
2018-03-26T01:15:56.651Z,89.70
2018-03-26T01:16:59.141Z,84.53
2018-03-26T01:18:01.646Z,93.37
2018-03-26T01:19:04.929Z,85.75
2018-03-26T01:20:07.451Z,92.55
2018-03-26T01:21:09.982Z,88.32
2018-03-26T01:22:13.266Z,88.40
2018-03-26T01:23:16.540Z,85.22
2018-03-26T01:24:19.035Z,85.68
2018-03-26T01:25:22.308Z,86.30
2018-03-26T01:26:24.816Z,83.03
2018-03-26T01:27:27.331Z,82.60
2018-03-26T01:28:29.828Z,86.60
2018-03-26T01:29:32.322Z,90.40
2018-03-26T01:30:35.579Z,83.65
2018-03-26T01:31:38.082Z,83.65
2018-03-26T01:32:41.364Z,78.25
2018-03-26T01:33:44.635Z,91.28
2018-03-26T01:34:47.119Z,84.78
2018-03-26T01:35:50.537Z,72.62
2018-03-26T01:36:53.045Z,84.35
2018-03-26T01:37:55.548Z,86.20
2018-03-26T01:38:58.819Z,76.70
2018-03-26T01:40:01.322Z,87.32
2018-03-26T01:41:04.581Z,83.65
2018-03-26T01:42:07.137Z,81.50
2018-03-26T01:43:09.648Z,82.40
2018-03-26T01:44:12.910Z,86.07
2018-03-26T01:45:15.397Z,91.57
2018-03-26T01:46:18.671Z,83.55
2018-03-26T01:47:22.736Z,79.28
2018-03-26T01:48:25.252Z,80.90
2018-03-26T01:49:27.751Z,74.60
2018-03-26T01:50:31.002Z,86.72
2018-03-26T01:51:33.495Z,77.50
2018-03-26T01:52:36.757Z,88.00
2018-03-26T01:53:39.287Z,83.60
2018-03-26T01:54:41.793Z,86.20
2018-03-26T01:55:44.294Z,95.65
2018-03-26T01:56:47.559Z,88.55
2018-03-26T01:57:50.057Z,85.70
2018-03-26T01:58:53.346Z,88.25
2018-03-26T01:59:55.897Z,80.70
2018-03-26T02:00:58.391Z,83.35
2018-03-26T02:02:01.645Z,92.97
2018-03-26T02:03:04.149Z,83.32
2018-03-26T02:04:07.408Z,84.35
2018-03-26T02:05:09.900Z,92.32
2018-03-26T02:06:13.841Z,91.97
2018-03-26T02:07:16.326Z,88.45
2018-03-26T02:08:18.837Z,79.28
2018-03-26T02:09:22.101Z,82.88
2018-03-26T02:10:24.582Z,86.65
2018-03-26T02:11:27.926Z,92.03
2018-03-26T02:12:30.414Z,86.70
2018-03-26T02:13:32.947Z,79.80
2018-03-26T02:14:35.440Z,84.28
2018-03-26T02:15:37.943Z,85.50
2018-03-26T02:16:40.427Z,85.38
2018-03-26T02:17:44.569Z,85.45
2018-03-26T02:18:47.089Z,92.57
2018-03-26T02:19:49.582Z,78.68
2018-03-26T02:20:52.224Z,83.07
2018-03-26T02:21:55.402Z,85.90
2018-03-26T02:22:57.909Z,93.82
2018-03-26T02:24:00.414Z,91.25
2018-03-26T02:25:02.919Z,88.68
2018-03-26T02:26:05.414Z,87.00
2018-03-26T02:27:09.427Z,89.40
2018-03-26T02:28:11.937Z,86.20
2018-03-26T02:29:14.419Z,89.47
2018-03-26T02:30:16.917Z,79.22
2018-03-26T02:31:19.458Z,86.68
2018-03-26T02:32:21.956Z,90.43
2018-03-26T02:33:25.178Z,77.93
2018-03-26T02:34:29.286Z,80.07
2018-03-26T02:35:32.557Z,81.60
2018-03-26T02:36:35.050Z,87.40
2018-03-26T02:37:37.551Z,93.12
2018-03-26T02:38:40.036Z,78.00
2018-03-26T02:39:42.556Z,82.12
2018-03-26T02:40:45.855Z,91.85
2018-03-26T02:41:48.357Z,78.55
2018-03-26T02:42:50.856Z,81.03
2018-03-26T02:43:53.348Z,83.37
2018-03-26T02:44:56.626Z,77.75
2018-03-26T02:45:59.164Z,83.37
2018-03-26T02:47:01.668Z,76.28
2018-03-26T02:48:04.671Z,96.50
2018-03-26T02:49:07.164Z,74.60
2018-03-26T02:50:09.670Z,73.43
2018-03-26T02:51:12.192Z,80.20
2018-03-26T02:52:14.688Z,73.68
2018-03-26T02:53:17.972Z,76.72
2018-03-26T02:54:20.472Z,80.03
2018-03-26T02:55:22.964Z,77.10
2018-03-26T02:56:25.470Z,83.70
2018-03-26T02:57:27.957Z,79.75
2018-03-26T02:58:31.230Z,78.57
2018-03-26T02:59:33.718Z,76.65
2018-03-26T03:00:36.202Z,82.30
2018-03-26T03:01:38.704Z,88.93
2018-03-26T03:02:41.969Z,77.87
2018-03-26T03:03:44.456Z,82.70
2018-03-26T03:04:46.956Z,81.43
2018-03-26T03:05:49.470Z,76.00
2018-03-26T03:06:51.992Z,78.80
2018-03-26T03:07:55.249Z,70.72
2018-03-26T03:08:58.531Z,82.93
2018-03-26T03:10:01.029Z,80.50
2018-03-26T03:11:04.312Z,84.25
2018-03-26T03:12:07.572Z,87.82
2018-03-26T03:13:10.107Z,81.37
2018-03-26T03:14:12.592Z,84.87
2018-03-26T03:15:15.100Z,78.57
2018-03-26T03:16:17.604Z,83.90
2018-03-26T03:17:20.113Z,93.20
2018-03-26T03:18:22.610Z,84.32
2018-03-26T03:19:25.114Z,91.72
2018-03-26T03:20:27.615Z,88.65
2018-03-26T03:21:30.129Z,96.57
2018-03-26T03:22:33.447Z,88.32
2018-03-26T03:23:35.942Z,100.78
2018-03-26T03:24:38.449Z,90.80
2018-03-26T03:25:40.951Z,92.10
2018-03-26T03:26:43.467Z,105.95
2018-03-26T03:27:46.008Z,108.10
2018-03-26T03:28:48.507Z,100.68
2018-03-26T03:29:51.016Z,98.70
2018-03-26T03:30:54.287Z,95.68
2018-03-26T03:31:56.796Z,102.40
2018-03-26T03:32:59.291Z,105.03
2018-03-26T03:34:01.793Z,98.55
2018-03-26T03:35:04.291Z,102.72
2018-03-26T03:36:07.564Z,100.05
2018-03-26T03:37:10.083Z,98.35
2018-03-26T03:38:12.583Z,116.00
2018-03-26T03:39:15.082Z,98.60
2018-03-26T03:40:18.337Z,99.20
2018-03-26T03:41:20.830Z,97.28
2018-03-26T03:42:24.203Z,106.12
2018-03-26T03:43:26.698Z,105.53
2018-03-26T03:44:30.676Z,109.60
2018-03-26T03:45:33.183Z,97.18
2018-03-26T03:46:36.440Z,103.05
2018-03-26T03:47:38.944Z,104.10
2018-03-26T03:48:42.207Z,101.82
2018-03-26T03:49:44.716Z,93.87
2018-03-26T03:50:47.799Z,103.32
2018-03-26T03:51:50.319Z,105.37
2018-03-26T03:52:52.819Z,93.90
2018-03-26T03:53:56.123Z,101.68
2018-03-26T03:54:58.627Z,94.60
2018-03-26T03:56:01.147Z,103.68
2018-03-26T03:57:04.400Z,99.75
2018-03-26T03:58:06.889Z,104.57
2018-03-26T03:59:09.382Z,101.28
2018-03-26T04:00:12.680Z,96.57
2018-03-26T04:01:15.167Z,103.07
2018-03-26T04:02:17.659Z,104.60
2018-03-26T04:03:20.160Z,105.15
2018-03-26T04:04:23.443Z,87.20
2018-03-26T04:05:25.976Z,95.53
2018-03-26T04:06:28.467Z,97.50
2018-03-26T04:07:30.959Z,99.97
2018-03-26T04:08:33.473Z,90.65
2018-03-26T04:09:35.953Z,98.32
2018-03-26T04:10:38.460Z,99.13
2018-03-26T04:11:40.968Z,87.10
2018-03-26T04:12:43.463Z,96.95
2018-03-26T04:13:45.998Z,99.75
2018-03-26T04:14:50.115Z,110.25
2018-03-26T04:15:52.636Z,97.93
2018-03-26T04:16:55.133Z,98.55
2018-03-26T04:17:57.676Z,87.00
2018-03-26T04:19:00.170Z,104.65
2018-03-26T04:20:02.671Z,107.78
2018-03-26T04:21:05.179Z,93.35
2018-03-26T04:22:07.668Z,95.20
2018-03-26T04:23:10.176Z,95.25
2018-03-26T04:24:13.444Z,85.85
2018-03-26T04:25:16.700Z,95.00
2018-03-26T04:26:19.212Z,104.07
2018-03-26T04:27:22.505Z,101.78
2018-03-26T04:28:25.775Z,91.35
2018-03-26T04:29:28.276Z,92.50
2018-03-26T04:30:30.766Z,87.95
2018-03-26T04:31:33.270Z,97.90
2018-03-26T04:32:35.774Z,87.53
2018-03-26T04:33:38.270Z,89.05
2018-03-26T04:34:40.803Z,88.55
2018-03-26T04:35:44.073Z,86.90
2018-03-26T04:36:46.589Z,99.22
2018-03-26T04:37:49.084Z,82.15
2018-03-26T04:38:51.578Z,86.10
2018-03-26T04:39:55.617Z,81.50
2018-03-26T04:40:58.869Z,80.80
2018-03-26T04:42:01.346Z,84.03
2018-03-26T04:43:03.828Z,78.97
2018-03-26T04:44:06.614Z,89.85
2018-03-26T04:45:09.899Z,78.62
2018-03-26T04:46:13.184Z,71.15
2018-03-26T04:47:15.667Z,75.47
2018-03-26T04:48:20.226Z,75.72
2018-03-26T04:49:22.730Z,76.45
2018-03-26T04:50:25.305Z,68.47
2018-03-26T04:51:27.759Z,82.80
2018-03-26T04:52:30.251Z,71.60
2018-03-26T04:53:32.744Z,69.55
2018-03-26T04:54:36.015Z,73.15
2018-03-26T04:55:39.283Z,65.95
2018-03-26T04:56:41.804Z,78.55
2018-03-26T04:57:44.292Z,76.90
2018-03-26T04:58:46.776Z,70.43
2018-03-26T04:59:49.309Z,67.82
2018-03-26T05:00:52.630Z,75.65
2018-03-26T05:01:55.118Z,72.35
2018-03-26T05:02:57.626Z,74.60
2018-03-26T05:04:00.896Z,71.82
2018-03-26T05:05:04.895Z,66.25
2018-03-26T05:06:07.406Z,70.85
2018-03-26T05:07:09.918Z,69.60
2018-03-26T05:08:12.438Z,68.57
2018-03-26T05:09:14.952Z,66.55
2018-03-26T05:10:18.317Z,62.10
2018-03-26T05:11:20.834Z,71.30
2018-03-26T05:12:23.330Z,72.30
2018-03-26T05:13:26.584Z,80.82
2018-03-26T05:14:29.084Z,77.10
2018-03-26T05:15:32.343Z,70.60
2018-03-26T05:16:34.863Z,67.12
2018-03-26T05:17:37.359Z,78.18
2018-03-26T05:18:39.874Z,68.25
2018-03-26T05:19:43.189Z,61.50
2018-03-26T05:20:45.690Z,61.15
2018-03-26T05:21:48.215Z,67.05
2018-03-26T05:22:51.454Z,69.12
2018-03-26T05:23:53.950Z,69.47
2018-03-26T05:24:56.451Z,70.47
2018-03-26T05:25:59.712Z,75.82
2018-03-26T05:27:02.207Z,62.25
2018-03-26T05:28:05.464Z,75.57
2018-03-26T05:29:08.726Z,70.75
2018-03-26T05:30:11.219Z,66.95
2018-03-26T05:31:13.748Z,59.83
2018-03-26T05:32:16.533Z,62.50
2018-03-26T05:33:19.039Z,67.95
2018-03-26T05:34:21.564Z,63.17
2018-03-26T05:35:25.084Z,62.78
2018-03-26T05:36:27.593Z,61.40
2018-03-26T05:37:30.876Z,50.45
2018-03-26T05:38:34.132Z,55.80
2018-03-26T05:39:36.626Z,59.78
2018-03-26T05:40:39.122Z,63.85
2018-03-26T05:41:42.371Z,54.03
2018-03-26T05:42:44.884Z,51.78
2018-03-26T05:43:47.462Z,49.70
2018-03-26T05:44:49.949Z,51.95
2018-03-26T05:45:52.442Z,60.08
2018-03-26T05:46:54.942Z,61.25
2018-03-26T05:47:58.256Z,53.63
2018-03-26T05:49:00.747Z,54.17
2018-03-26T05:50:03.248Z,53.47
2018-03-26T05:51:05.749Z,55.22
2018-03-26T05:52:09.023Z,62.15
2018-03-26T05:53:11.632Z,59.67
2018-03-26T05:54:15.055Z,62.10
2018-03-26T05:55:17.554Z,57.38
2018-03-26T05:56:20.051Z,57.00
2018-03-26T05:57:23.304Z,51.75
2018-03-26T05:58:25.807Z,60.67
2018-03-26T05:59:28.299Z,56.13
2018-03-26T06:00:30.787Z,56.65
2018-03-26T06:01:33.307Z,57.58
2018-03-26T06:02:36.566Z,55.25
2018-03-26T06:03:39.222Z,54.97
2018-03-26T06:04:41.720Z,61.75
2018-03-26T06:05:44.216Z,53.63
2018-03-26T06:06:47.472Z,64.18
2018-03-26T06:07:49.959Z,69.03
2018-03-26T06:08:53.239Z,65.45
2018-03-26T06:09:55.754Z,62.80
2018-03-26T06:10:59.019Z,58.40
2018-03-26T06:12:02.276Z,53.58
2018-03-26T06:13:04.780Z,55.45
2018-03-26T06:14:08.051Z,57.72
2018-03-26T06:15:12.999Z,55.30
2018-03-26T06:16:16.263Z,55.80
2018-03-26T06:17:18.756Z,46.63
2018-03-26T06:18:22.164Z,51.25
2018-03-26T06:19:24.696Z,53.58
2018-03-26T06:20:27.196Z,42.50
2018-03-26T06:21:29.710Z,47.95
2018-03-26T06:22:32.215Z,46.28
2018-03-26T06:23:35.491Z,46.80
2018-03-26T06:24:37.994Z,51.88
2018-03-26T06:25:40.500Z,52.70
2018-03-26T06:26:43.018Z,49.15
2018-03-26T06:27:46.270Z,40.08
2018-03-26T06:28:48.770Z,43.25
2018-03-26T06:29:52.040Z,52.53
2018-03-26T06:30:54.535Z,55.53
2018-03-26T06:31:57.780Z,44.42
2018-03-26T06:33:00.274Z,42.78
2018-03-26T06:34:03.529Z,43.47
2018-03-26T06:35:06.900Z,45.47
2018-03-26T06:37:48.114Z,50.50
2018-03-26T06:39:09.357Z,43.75
2018-03-26T06:40:11.890Z,45.80
2018-03-26T06:41:14.432Z,43.92
2018-03-26T06:42:17.436Z,46.58
2018-03-26T06:43:19.953Z,49.58
2018-03-26T06:44:22.519Z,42.20
2018-03-26T06:45:25.063Z,47.58
2018-03-26T06:46:27.571Z,53.55
2018-03-26T06:47:30.083Z,44.30
2018-03-26T06:48:32.590Z,43.05
2018-03-26T06:49:35.081Z,50.28
2018-03-26T06:50:37.662Z,43.00
2018-03-26T06:51:41.188Z,43.53
2018-03-26T06:52:43.682Z,46.63
2018-03-26T06:53:46.167Z,41.97
2018-03-26T06:54:49.470Z,43.10
2018-03-26T06:55:53.118Z,42.83
2018-03-26T06:56:55.682Z,43.78
2018-03-26T06:57:58.185Z,47.65
2018-03-26T06:59:00.716Z,44.25
2018-03-26T07:00:03.992Z,40.92
2018-03-26T07:01:07.278Z,42.67
2018-03-26T07:02:10.555Z,47.60
2018-03-26T07:03:13.873Z,44.20
2018-03-26T07:04:16.425Z,43.65
2018-03-26T07:05:19.676Z,42.22
2018-03-26T07:06:22.452Z,45.17
2018-03-26T07:07:24.954Z,38.75
2018-03-26T07:08:29.069Z,42.38
2018-03-26T07:09:32.337Z,42.08
2018-03-26T07:10:34.820Z,34.97
2018-03-26T07:11:38.128Z,37.33
2018-03-26T07:12:41.646Z,41.72
2018-03-26T07:13:44.186Z,41.20
2018-03-26T07:14:47.502Z,38.67
2018-03-26T07:15:50.070Z,33.92
2018-03-26T07:16:53.304Z,39.35
2018-03-26T07:17:57.423Z,40.55
2018-03-26T07:19:00.752Z,37.53
2018-03-26T07:20:03.243Z,31.75
2018-03-26T07:21:05.729Z,35.65
2018-03-26T07:22:08.231Z,30.75
2018-03-26T07:23:11.522Z,39.38
2018-03-26T07:24:14.787Z,33.40
2018-03-26T07:25:17.339Z,27.30
2018-03-26T07:26:19.868Z,27.75
2018-03-26T07:27:23.178Z,30.15
2018-03-26T07:28:25.677Z,33.15
2018-03-26T07:29:28.169Z,34.95
2018-03-26T07:30:31.438Z,31.75
2018-03-26T07:31:33.960Z,40.10
2018-03-26T07:32:36.477Z,29.30
2018-03-26T07:33:38.984Z,29.75
2018-03-26T07:34:42.248Z,29.98
2018-03-26T07:35:44.791Z,26.02
2018-03-26T07:36:47.266Z,30.83
2018-03-26T07:37:49.828Z,39.00
2018-03-26T07:38:52.322Z,33.83
2018-03-26T07:39:54.822Z,34.97
2018-03-26T07:40:57.365Z,34.88
2018-03-26T07:41:59.867Z,30.90
2018-03-26T07:43:03.150Z,30.12
2018-03-26T07:44:06.411Z,31.12
2018-03-26T07:45:08.910Z,25.08
2018-03-26T07:46:12.191Z,31.33
2018-03-26T07:47:15.577Z,30.77
2018-03-26T07:48:18.863Z,27.85
2018-03-26T07:49:22.134Z,29.80
2018-03-26T07:50:24.660Z,30.75
2018-03-26T07:51:27.158Z,38.05
2018-03-26T07:52:29.674Z,33.35
2018-03-26T07:53:33.743Z,37.30
2018-03-26T07:54:36.247Z,32.80
2018-03-26T07:55:39.507Z,30.23
2018-03-26T07:56:42.003Z,28.83
2018-03-26T07:57:45.308Z,31.80
2018-03-26T07:58:47.814Z,35.20
2018-03-26T07:59:50.327Z,35.67
2018-03-26T08:00:53.597Z,30.08
2018-03-26T08:01:56.093Z,33.15
2018-03-26T08:02:59.987Z,36.10
2018-03-26T08:04:02.499Z,33.40
2018-03-26T08:05:05.954Z,35.83
2018-03-26T08:06:09.259Z,28.95
2018-03-26T08:07:12.365Z,28.25
2018-03-26T08:08:14.930Z,31.80
2018-03-26T08:09:17.443Z,30.83
2018-03-26T08:10:19.938Z,26.70
2018-03-26T08:11:23.264Z,29.37
2018-03-26T08:12:26.646Z,29.92
2018-03-26T08:13:29.161Z,32.17
2018-03-26T08:14:31.656Z,32.55
2018-03-26T08:15:34.950Z,30.88
2018-03-26T08:16:38.258Z,31.33
2018-03-26T08:17:40.765Z,27.95
2018-03-26T08:18:43.752Z,36.00
2018-03-26T08:19:46.277Z,32.67
2018-03-26T08:20:48.766Z,30.55
2018-03-26T08:21:51.290Z,31.05
2018-03-26T08:22:53.799Z,32.95
2018-03-26T08:23:56.311Z,30.67
2018-03-26T08:24:58.829Z,37.63
2018-03-26T08:26:01.338Z,31.15
2018-03-26T08:27:03.834Z,31.75
2018-03-26T08:28:06.362Z,35.13
2018-03-26T08:29:08.913Z,32.53
2018-03-26T08:30:11.448Z,30.83
2018-03-26T08:31:13.957Z,26.80
2018-03-26T08:32:16.450Z,30.23
2018-03-26T08:33:18.947Z,31.23
2018-03-26T08:34:21.482Z,34.03
2018-03-26T08:35:24.810Z,31.87
2018-03-26T08:36:27.340Z,33.25
2018-03-26T08:37:29.839Z,37.00
2018-03-26T08:38:32.355Z,37.60
2018-03-26T08:39:35.634Z,38.22
2018-03-26T08:40:38.927Z,39.65
2018-03-26T08:41:42.196Z,37.20
2018-03-26T08:42:44.707Z,34.65
2018-03-26T08:43:47.216Z,33.00
2018-03-26T08:44:49.776Z,37.03
2018-03-26T08:45:52.297Z,37.60
2018-03-26T08:46:55.568Z,30.75
2018-03-26T08:47:58.073Z,34.05
2018-03-26T08:49:00.603Z,30.15
2018-03-26T08:50:03.163Z,30.25
2018-03-26T08:51:05.674Z,32.58
2018-03-26T08:52:08.955Z,35.25
2018-03-26T08:53:12.264Z,34.00
2018-03-26T08:54:14.777Z,33.33
2018-03-26T08:55:17.306Z,31.23
2018-03-26T08:56:20.629Z,33.83
2018-03-26T08:57:23.157Z,32.30
2018-03-26T08:58:25.709Z,30.23
2018-03-26T08:59:29.360Z,37.72
2018-03-26T09:00:32.678Z,32.22
2018-03-26T09:01:35.242Z,33.55
2018-03-26T09:02:37.775Z,32.78
2018-03-26T09:03:41.232Z,30.37
2018-03-26T09:04:43.756Z,32.05
2018-03-26T09:05:46.285Z,29.37
2018-03-26T09:06:49.543Z,30.98
2018-03-26T09:07:52.062Z,30.50
2018-03-26T09:08:55.220Z,28.92
2018-03-26T09:09:58.484Z,31.30
2018-03-26T09:11:01.016Z,30.42
2018-03-26T09:12:03.538Z,25.80
2018-03-26T09:13:06.069Z,26.37
2018-03-26T09:14:08.591Z,28.62
2018-03-26T09:15:11.915Z,24.42
2018-03-26T09:16:14.433Z,25.83
2018-03-26T09:17:17.073Z,25.77
2018-03-26T09:18:19.571Z,28.23
2018-03-26T09:19:22.059Z,19.75
2018-03-26T09:20:24.576Z,22.40
2018-03-26T09:21:27.115Z,23.23
2018-03-26T09:22:30.383Z,23.08
2018-03-26T09:23:32.871Z,19.90
2018-03-26T09:24:36.147Z,21.77
2018-03-26T09:25:39.485Z,17.40
2018-03-26T09:26:41.993Z,20.10
2018-03-26T09:27:44.553Z,16.50
2018-03-26T09:28:47.089Z,16.92
2018-03-26T09:29:49.620Z,22.60
2018-03-26T09:30:52.906Z,18.75
2018-03-26T09:31:56.973Z,15.43
2018-03-26T09:32:59.617Z,17.85
2018-03-26T09:34:02.143Z,15.45
2018-03-26T09:35:05.425Z,14.02
2018-03-26T09:36:08.463Z,15.73
2018-03-26T09:37:11.102Z,15.77
2018-03-26T09:38:13.669Z,14.43
2018-03-26T09:39:16.204Z,13.85
2018-03-26T09:40:18.726Z,15.75
2018-03-26T09:41:22.003Z,15.05
2018-03-26T09:42:24.491Z,15.20
2018-03-26T09:43:27.796Z,11.07
2018-03-26T09:44:30.309Z,11.68
2018-03-26T09:45:32.818Z,11.32
2018-03-26T09:46:36.070Z,12.60
2018-03-26T09:47:38.595Z,13.20
2018-03-26T09:48:41.132Z,12.13
2018-03-26T09:49:43.629Z,10.40
2018-03-26T09:50:46.221Z,15.75
2018-03-26T09:51:49.558Z,9.75
2018-03-26T09:52:52.060Z,10.45
2018-03-26T09:53:54.580Z,10.35
2018-03-26T09:54:57.111Z,9.77
2018-03-26T09:55:59.621Z,17.00
2018-03-26T09:57:02.106Z,12.57
2018-03-26T09:58:04.642Z,11.10
2018-03-26T09:59:07.144Z,8.60
2018-03-26T10:00:09.672Z,10.77
2018-03-26T10:01:18.053Z,11.12
2018-03-26T10:02:21.328Z,8.98
2018-03-26T10:03:24.624Z,13.02
2018-03-26T10:04:27.896Z,10.25
2018-03-26T10:05:30.397Z,8.93
2018-03-26T10:06:32.916Z,11.02
2018-03-26T10:07:35.402Z,8.20
2018-03-26T10:08:38.678Z,8.60
2018-03-26T10:09:41.184Z,10.63
2018-03-26T10:10:43.683Z,8.50
2018-03-26T10:11:46.199Z,11.77
2018-03-26T10:12:48.760Z,9.75
2018-03-26T10:13:51.267Z,11.98
2018-03-26T10:14:54.527Z,9.10
2018-03-26T10:15:57.022Z,13.35
2018-03-26T10:17:00.278Z,6.10
2018-03-26T10:18:02.776Z,11.02
2018-03-26T10:19:06.038Z,9.02
2018-03-26T10:20:09.300Z,10.10
2018-03-26T10:21:13.856Z,8.38
2018-03-26T10:22:16.409Z,10.82
2018-03-26T10:23:18.921Z,9.38
2018-03-26T10:24:21.466Z,11.80
2018-03-26T10:25:23.955Z,8.98
2018-03-26T10:26:26.494Z,8.93
2018-03-26T10:27:29.003Z,11.68
2018-03-26T10:28:31.520Z,8.70
2018-03-26T10:29:34.022Z,6.65
2018-03-26T10:30:36.525Z,10.07
2018-03-26T10:31:39.020Z,5.90
2018-03-26T10:32:41.497Z,11.43
2018-03-26T10:33:43.986Z,6.97
2018-03-26T10:34:46.483Z,7.72
2018-03-26T10:35:49.751Z,9.07
2018-03-26T10:36:52.247Z,7.90
2018-03-26T10:37:55.611Z,9.10
2018-03-26T10:38:58.862Z,7.25
2018-03-26T10:40:01.370Z,9.15
2018-03-26T10:41:03.864Z,8.93
2018-03-26T10:42:07.139Z,8.77
2018-03-26T10:43:10.408Z,10.32
2018-03-26T10:44:13.736Z,9.45
2018-03-26T10:45:16.265Z,9.43
2018-03-26T10:46:18.885Z,7.60
2018-03-26T10:47:21.381Z,7.25
2018-03-26T10:48:23.879Z,9.75
2018-03-26T10:49:26.378Z,8.32
2018-03-26T10:50:29.640Z,6.80
2018-03-26T10:51:32.895Z,8.93
2018-03-26T10:52:35.783Z,5.37
2018-03-26T10:53:38.685Z,9.93
2018-03-26T10:54:41.171Z,5.72
2018-03-26T10:55:43.671Z,5.70
2018-03-26T10:56:46.170Z,6.22
2018-03-26T10:57:48.656Z,6.37
2018-03-26T10:58:51.144Z,11.27
2018-03-26T10:59:53.631Z,9.10
2018-03-26T11:00:56.915Z,11.93
2018-03-26T11:02:00.166Z,8.02
2018-03-26T11:03:02.673Z,5.65
2018-03-26T11:05:04.245Z,6.25
2018-03-26T11:06:06.764Z,10.20
2018-03-26T11:07:09.257Z,7.28
2018-03-26T11:08:11.780Z,10.27
2018-03-26T11:09:14.301Z,11.30
2018-03-26T11:10:16.803Z,7.78
2018-03-26T11:11:19.311Z,12.73
2018-03-26T11:12:22.008Z,10.20
2018-03-26T11:13:24.546Z,8.25
2018-03-26T11:14:27.043Z,10.80
2018-03-26T11:15:29.532Z,8.18
2018-03-26T11:16:32.036Z,8.40
2018-03-26T11:17:34.562Z,11.82
2018-03-26T11:18:37.045Z,7.07
2018-03-26T11:19:39.533Z,7.70
2018-03-26T11:20:42.795Z,8.75
2018-03-26T11:21:45.410Z,12.95
2018-03-26T11:22:47.933Z,9.98
2018-03-26T11:23:50.437Z,11.57
2018-03-26T11:24:52.948Z,10.55
2018-03-26T11:25:55.441Z,11.48
2018-03-26T11:26:58.676Z,9.95
2018-03-26T11:28:01.207Z,13.77
2018-03-26T11:29:03.691Z,11.20
2018-03-26T11:30:06.961Z,10.25
2018-03-26T11:31:09.442Z,8.45
2018-03-26T11:32:12.957Z,10.30
2018-03-26T11:33:15.480Z,10.32
2018-03-26T11:34:18.037Z,9.57
2018-03-26T11:35:20.534Z,11.27
2018-03-26T11:36:23.107Z,10.23
2018-03-26T11:37:26.588Z,9.43
2018-03-26T11:38:29.653Z,9.35
2018-03-26T11:39:32.168Z,9.45
2018-03-26T11:40:35.431Z,9.68
2018-03-26T11:41:37.951Z,9.32
2018-03-26T11:42:40.444Z,8.10
2018-03-26T11:43:42.965Z,9.40
2018-03-26T11:44:45.511Z,8.45
2018-03-26T11:45:48.059Z,7.68
2018-03-26T11:46:50.595Z,10.50
2018-03-26T11:47:53.883Z,9.55
2018-03-26T11:48:56.388Z,5.95
2018-03-26T11:49:58.926Z,7.57
2018-03-26T11:51:02.197Z,6.10
2018-03-26T11:52:05.620Z,7.65
2018-03-26T11:53:08.138Z,9.70
2018-03-26T11:54:10.698Z,9.55
2018-03-26T11:55:13.289Z,10.30
2018-03-26T11:56:15.801Z,7.87
2018-03-26T11:57:18.325Z,10.75
2018-03-26T11:58:20.852Z,8.05
2018-03-26T11:59:23.420Z,6.70
2018-03-26T12:00:25.936Z,8.50
2018-03-26T12:01:28.449Z,6.70
2018-03-26T12:02:31.001Z,6.12
2018-03-26T12:03:34.282Z,10.10
2018-03-26T12:04:37.550Z,8.43
2018-03-26T12:05:40.060Z,6.68
2018-03-26T12:06:43.344Z,10.90
2018-03-26T12:07:46.624Z,6.78
2018-03-26T12:08:50.106Z,9.15
2018-03-26T12:09:52.638Z,6.32
2018-03-26T12:10:55.147Z,8.18
2018-03-26T12:11:57.677Z,5.40
2018-03-26T12:13:00.246Z,7.18
2018-03-26T12:14:02.770Z,7.95
2018-03-26T12:15:06.052Z,6.65
2018-03-26T12:16:09.663Z,6.05
2018-03-26T12:17:12.961Z,8.10
2018-03-26T12:18:16.362Z,9.18
2018-03-26T12:19:18.879Z,7.45
2018-03-26T12:20:33.274Z,5.82
2018-03-26T12:21:36.547Z,11.50
2018-03-26T12:22:39.834Z,9.02
2018-03-26T12:23:54.983Z,8.40
2018-03-26T12:25:05.253Z,5.95
2018-03-26T12:26:07.755Z,9.60
2018-03-26T12:27:10.392Z,7.90
2018-03-26T12:28:24.838Z,10.10
2018-03-26T12:29:39.263Z,10.75
2018-03-26T12:30:41.771Z,11.98
2018-03-26T12:31:44.368Z,8.90
2018-03-26T12:32:46.883Z,13.88
2018-03-26T12:34:01.289Z,6.20
2018-03-26T12:35:16.828Z,6.53
2018-03-26T12:36:19.322Z,6.32
2018-03-26T12:37:22.608Z,14.93
2018-03-26T12:38:25.902Z,9.43
2018-03-26T12:39:28.508Z,8.98
2018-03-26T12:40:43.092Z,6.12
2018-03-26T12:41:45.734Z,13.07
2018-03-26T12:42:48.365Z,10.43
2018-03-26T12:43:51.736Z,8.23
2018-03-26T12:45:06.155Z,6.70
2018-03-26T12:46:20.497Z,6.97
2018-03-26T12:47:23.075Z,8.23
2018-03-26T12:48:25.605Z,8.65
2018-03-26T12:49:29.334Z,6.43
2018-03-26T12:50:43.700Z,8.90
2018-03-26T12:51:57.992Z,10.45
2018-03-26T12:53:01.271Z,7.35
2018-03-26T12:54:03.850Z,12.27
2018-03-26T12:55:07.148Z,8.75
2018-03-26T12:56:10.428Z,11.05
2018-03-26T12:57:25.509Z,9.00
2018-03-26T12:58:39.973Z,7.93
2018-03-26T12:59:42.487Z,9.63
2018-03-26T13:02:24.816Z,7.40
2018-03-26T13:03:27.432Z,8.40
2018-03-26T13:04:29.966Z,6.85
2018-03-26T13:05:32.572Z,7.68
2018-03-26T13:06:35.142Z,6.82
2018-03-26T13:07:38.421Z,7.43
2018-03-26T13:08:41.692Z,7.93
2018-03-26T13:09:44.269Z,10.65
2018-03-26T13:10:47.536Z,7.50
2018-03-26T13:11:50.069Z,8.00
2018-03-26T13:12:52.554Z,8.10
2018-03-26T13:13:55.093Z,12.40
2018-03-26T13:14:57.617Z,6.40
2018-03-26T13:16:00.132Z,8.60
2018-03-26T13:17:03.245Z,7.57
2018-03-26T13:18:05.759Z,11.52
2018-03-26T13:19:09.023Z,8.73
2018-03-26T13:20:11.575Z,10.45
2018-03-26T13:21:14.113Z,10.82
2018-03-26T13:22:16.651Z,9.63
2018-03-26T13:23:19.150Z,7.87
2018-03-26T13:24:21.653Z,7.18
2018-03-26T13:25:24.189Z,8.70
2018-03-26T13:26:26.701Z,9.77
2018-03-26T13:27:29.246Z,6.80
2018-03-26T13:28:31.747Z,7.55
2018-03-26T13:29:34.276Z,6.70
2018-03-26T13:30:36.811Z,10.95
2018-03-26T13:31:39.355Z,7.35
2018-03-26T13:32:41.862Z,10.80
2018-03-26T13:33:44.441Z,8.95
2018-03-26T13:34:46.940Z,7.35
2018-03-26T13:35:49.443Z,8.73
2018-03-26T13:36:51.945Z,9.73
2018-03-26T13:37:54.497Z,6.43
2018-03-26T13:38:57.014Z,10.23